createdAt,value
2019-01-29T00:00:32.645Z,20.93
2019-01-29T00:03:03.812Z,26.33
2019-01-29T00:05:35.047Z,26.40
2019-01-29T00:08:05.619Z,24.13
2019-01-29T00:10:36.535Z,21.37
2019-01-29T00:13:07.120Z,25.03
2019-01-29T00:15:38.156Z,23.97
2019-01-29T00:18:08.871Z,23.07
2019-01-29T00:20:39.579Z,19.70
2019-01-29T00:23:10.178Z,18.37
2019-01-29T00:25:41.298Z,21.73
2019-01-29T00:28:12.342Z,17.20
2019-01-29T00:30:43.195Z,20.90
2019-01-29T00:33:13.805Z,19.63
2019-01-29T00:35:45.405Z,19.03
2019-01-29T00:38:15.912Z,18.53
2019-01-29T00:40:46.416Z,18.23
2019-01-29T00:43:17.227Z,17.17
2019-01-29T00:45:47.720Z,20.07
2019-01-29T00:48:18.169Z,20.20
2019-01-29T00:50:49.163Z,19.40
2019-01-29T00:53:20.118Z,18.63
2019-01-29T00:55:50.615Z,17.90
2019-01-29T00:58:20.964Z,19.03
2019-01-29T01:00:52.046Z,18.97
2019-01-29T01:03:22.416Z,18.20
2019-01-29T01:05:53.009Z,17.47
2019-01-29T01:08:23.264Z,18.17
2019-01-29T01:10:54.224Z,17.97
2019-01-29T01:13:26.053Z,18.13
2019-01-29T01:15:58.167Z,17.00
2019-01-29T01:18:28.610Z,18.03
2019-01-29T01:21:00.347Z,19.03
2019-01-29T01:23:31.264Z,17.67
2019-01-29T01:26:02.272Z,18.27
2019-01-29T01:28:32.690Z,18.00
2019-01-29T01:31:03.287Z,16.10
2019-01-29T01:33:33.820Z,15.80
2019-01-29T01:36:04.936Z,17.23
2019-01-29T01:38:36.310Z,18.77
2019-01-29T01:41:07.029Z,16.27
2019-01-29T01:43:37.735Z,16.57
2019-01-29T01:46:08.036Z,15.70
2019-01-29T01:48:38.651Z,16.67
2019-01-29T01:51:09.543Z,16.23
2019-01-29T01:53:40.139Z,16.77
2019-01-29T01:56:10.705Z,16.10
2019-01-29T01:58:41.823Z,15.30
2019-01-29T02:01:12.144Z,16.37
2019-01-29T02:03:42.833Z,14.30
2019-01-29T02:06:13.507Z,14.83
2019-01-29T02:08:43.966Z,16.30
2019-01-29T02:11:14.579Z,15.10
2019-01-29T02:13:45.575Z,15.20
2019-01-29T02:16:16.139Z,13.00
2019-01-29T02:18:46.656Z,13.70
2019-01-29T02:21:17.426Z,14.10
2019-01-29T02:23:48.387Z,12.63
2019-01-29T02:26:20.373Z,12.17
2019-01-29T02:28:53.542Z,13.77
2019-01-29T02:31:25.543Z,12.00
2019-01-29T02:33:55.938Z,12.70
2019-01-29T02:36:26.614Z,12.47
2019-01-29T02:38:59.973Z,12.87
2019-01-29T02:41:30.707Z,11.60
2019-01-29T02:44:01.154Z,11.87
2019-01-29T02:46:32.273Z,11.80
2019-01-29T02:49:03.177Z,12.60
2019-01-29T02:51:33.939Z,11.10
2019-01-29T02:54:04.615Z,12.87
2019-01-29T02:56:35.427Z,11.30
2019-01-29T02:59:06.418Z,12.70
2019-01-29T03:01:37.438Z,11.07
2019-01-29T03:10:18.001Z,12.97
2019-01-29T03:12:48.390Z,12.93
2019-01-29T03:15:25.136Z,12.53
2019-01-29T03:17:56.027Z,10.73
2019-01-29T03:20:26.672Z,11.23
2019-01-29T03:22:58.336Z,12.50
2019-01-29T03:25:29.032Z,12.87
2019-01-29T03:28:00.059Z,11.40
2019-01-29T03:30:31.058Z,11.20
2019-01-29T03:33:02.059Z,11.77
2019-01-29T03:35:32.926Z,12.53
2019-01-29T03:38:03.739Z,12.03
2019-01-29T03:40:35.014Z,11.03
2019-01-29T03:43:05.855Z,10.30
2019-01-29T03:45:36.733Z,15.23
2019-01-29T03:48:07.916Z,11.50
2019-01-29T03:50:38.771Z,12.23
2019-01-29T03:53:09.286Z,14.37
2019-01-29T03:55:40.048Z,12.37
2019-01-29T03:58:11.327Z,12.40
2019-01-29T04:00:42.211Z,12.50
2019-01-29T04:03:12.777Z,12.77
2019-01-29T04:05:43.510Z,12.00
2019-01-29T04:08:14.766Z,13.37
2019-01-29T04:10:48.867Z,10.70
2019-01-29T04:13:19.244Z,9.90
2019-01-29T04:15:50.736Z,11.00
2019-01-29T04:18:22.337Z,10.70
2019-01-29T04:20:52.896Z,10.97
2019-01-29T04:23:23.456Z,10.20
2019-01-29T04:25:54.689Z,9.53
2019-01-29T04:28:25.179Z,8.97
2019-01-29T04:30:55.606Z,9.90
2019-01-29T04:33:26.614Z,9.60
2019-01-29T04:35:57.591Z,9.50
2019-01-29T04:38:28.339Z,9.53
2019-01-29T04:40:58.977Z,8.93
2019-01-29T04:43:30.087Z,8.13
2019-01-29T04:46:00.809Z,8.90
2019-01-29T04:48:32.340Z,9.10
2019-01-29T04:51:02.959Z,8.13
2019-01-29T04:53:33.977Z,9.03
2019-01-29T04:56:04.293Z,7.67
2019-01-29T04:58:34.759Z,8.40
2019-01-29T05:01:05.440Z,8.13
2019-01-29T05:03:36.195Z,11.03
2019-01-29T05:06:07.441Z,9.17
2019-01-29T05:08:38.176Z,9.20
2019-01-29T05:11:08.935Z,9.47
2019-01-29T05:13:40.281Z,8.70
2019-01-29T05:16:11.005Z,8.20
2019-01-29T05:18:41.662Z,7.37
2019-01-29T05:21:12.462Z,6.77
2019-01-29T05:23:43.532Z,6.33
2019-01-29T05:26:15.287Z,5.67
2019-01-29T05:28:46.277Z,6.17
2019-01-29T05:31:17.143Z,5.80
2019-01-29T05:33:48.171Z,5.70
2019-01-29T05:36:18.588Z,6.00
2019-01-29T05:38:48.819Z,5.67
2019-01-29T05:41:19.463Z,5.80
2019-01-29T05:43:49.896Z,6.37
2019-01-29T05:46:20.327Z,7.03
2019-01-29T05:48:50.959Z,6.17
2019-01-29T05:51:21.739Z,5.70
2019-01-29T05:53:53.309Z,7.40
2019-01-29T05:56:23.591Z,8.50
2019-01-29T05:58:56.112Z,8.70
2019-01-29T06:01:26.683Z,7.03
2019-01-29T06:03:57.282Z,8.03
2019-01-29T06:06:28.007Z,7.03
2019-01-29T06:08:59.660Z,8.40
2019-01-29T06:11:30.615Z,6.20
2019-01-29T06:14:02.568Z,7.43
2019-01-29T06:16:33.805Z,6.53
2019-01-29T06:19:04.205Z,9.43
2019-01-29T06:21:35.142Z,6.40
2019-01-29T06:24:05.514Z,7.90
2019-01-29T06:26:36.098Z,6.50
2019-01-29T06:29:06.928Z,6.40
2019-01-29T06:31:37.358Z,6.53
2019-01-29T06:34:08.678Z,6.70
2019-01-29T06:36:39.448Z,7.70
2019-01-29T06:39:10.517Z,6.27
2019-01-29T06:41:41.506Z,7.63
2019-01-29T06:44:12.501Z,6.27
2019-01-29T06:46:43.441Z,14.93
2019-01-29T06:49:14.093Z,7.90
2019-01-29T06:51:44.781Z,7.33
2019-01-29T06:54:15.192Z,7.17
2019-01-29T06:56:45.954Z,8.00
2019-01-29T06:59:16.994Z,8.00
2019-01-29T07:01:47.595Z,9.17
2019-01-29T07:04:18.152Z,8.87
2019-01-29T07:06:48.547Z,9.27
2019-01-29T07:09:19.840Z,10.00
2019-01-29T07:12:03.802Z,8.77
2019-01-29T07:14:37.839Z,8.30
2019-01-29T07:17:24.413Z,8.33
2019-01-29T07:19:57.479Z,8.30
2019-01-29T07:22:28.207Z,8.27
2019-01-29T07:24:58.859Z,7.93
2019-01-29T07:27:32.299Z,8.07
2019-01-29T07:30:02.555Z,8.57
2019-01-29T07:32:33.127Z,7.50
2019-01-29T07:35:05.186Z,8.40
2019-01-29T07:37:39.069Z,8.80
2019-01-29T07:40:09.926Z,9.00
2019-01-29T07:42:40.610Z,8.77
2019-01-29T07:45:11.599Z,9.30
2019-01-29T07:47:43.108Z,8.00
2019-01-29T07:50:14.421Z,8.77
2019-01-29T07:52:45.165Z,10.17
2019-01-29T07:55:16.235Z,8.17
2019-01-29T07:57:47.030Z,9.00
2019-01-29T08:00:18.102Z,8.73
2019-01-29T08:02:48.663Z,9.17
2019-01-29T08:05:21.947Z,9.10
2019-01-29T08:07:52.454Z,8.30
2019-01-29T08:10:24.731Z,24.87
2019-01-29T08:12:56.598Z,8.40
2019-01-29T08:15:28.373Z,9.17
2019-01-29T08:17:59.057Z,8.60
2019-01-29T08:20:29.913Z,10.00
2019-01-29T08:23:01.041Z,9.67
2019-01-29T08:25:31.905Z,9.73
2019-01-29T08:28:02.898Z,9.37
2019-01-29T08:30:33.675Z,8.83
2019-01-29T08:33:04.482Z,8.33
2019-01-29T08:35:35.221Z,9.00
2019-01-29T08:38:05.799Z,10.10
2019-01-29T08:40:36.972Z,11.10
2019-01-29T08:43:11.382Z,11.63
2019-01-29T08:45:42.218Z,12.90
2019-01-29T08:48:14.345Z,11.73
2019-01-29T08:50:46.384Z,10.33
2019-01-29T08:53:17.214Z,10.40
2019-01-29T08:55:48.202Z,10.10
2019-01-29T08:58:26.863Z,12.37
2019-01-29T09:00:52.419Z,9.67
2019-01-29T09:03:23.140Z,12.70
2019-01-29T09:05:54.584Z,11.30
2019-01-29T09:08:25.732Z,10.90
2019-01-29T09:10:56.705Z,12.07
2019-01-29T09:13:27.238Z,10.47
2019-01-29T09:15:57.925Z,11.30
2019-01-29T09:18:29.054Z,13.17
2019-01-29T09:20:59.793Z,11.57
2019-01-29T09:23:30.701Z,11.10
2019-01-29T09:26:01.015Z,11.23
2019-01-29T09:28:31.499Z,13.93
2019-01-29T09:31:02.913Z,11.53
2019-01-29T09:33:34.545Z,12.27
2019-01-29T09:36:05.440Z,12.27
2019-01-29T09:38:35.976Z,12.07
2019-01-29T09:41:07.014Z,12.40
2019-01-29T09:43:37.810Z,12.53
2019-01-29T09:46:09.203Z,12.23
2019-01-29T09:48:40.055Z,11.30
2019-01-29T09:51:11.116Z,11.53
2019-01-29T09:53:42.134Z,12.47
2019-01-29T09:56:14.564Z,10.80
2019-01-29T09:58:46.289Z,11.70
2019-01-29T10:01:16.731Z,10.90
2019-01-29T10:03:48.325Z,11.37
2019-01-29T10:06:19.292Z,12.00
2019-01-29T10:08:50.061Z,12.80
2019-01-29T10:11:20.942Z,13.73
2019-01-29T10:13:52.221Z,12.37
2019-01-29T10:16:23.221Z,14.77
2019-01-29T10:18:55.186Z,13.93
2019-01-29T10:21:25.857Z,11.80
2019-01-29T10:23:57.585Z,13.00
2019-01-29T10:26:29.252Z,13.03
2019-01-29T10:29:00.224Z,14.10
2019-01-29T10:31:31.905Z,13.10
2019-01-29T10:34:02.763Z,13.03
2019-01-29T10:36:33.695Z,13.23
2019-01-29T10:39:06.596Z,12.47
2019-01-29T10:41:37.048Z,13.77
2019-01-29T10:44:07.578Z,13.80
2019-01-29T10:46:38.829Z,14.33
2019-01-29T10:49:10.234Z,12.40
2019-01-29T10:51:41.248Z,15.93
2019-01-29T10:54:12.619Z,14.47
2019-01-29T10:56:43.538Z,14.20
2019-01-29T10:59:14.103Z,14.20
2019-01-29T11:01:44.651Z,13.87
2019-01-29T11:04:15.342Z,14.67
2019-01-29T11:06:46.628Z,15.00
2019-01-29T11:09:24.990Z,15.37
2019-01-29T11:11:49.680Z,15.63
2019-01-29T11:14:20.372Z,13.53
2019-01-29T11:16:51.479Z,14.80
2019-01-29T11:19:22.365Z,15.00
2019-01-29T11:21:53.115Z,15.13
2019-01-29T11:24:23.916Z,16.43
2019-01-29T11:26:55.420Z,15.47
2019-01-29T11:29:26.758Z,15.00
2019-01-29T11:31:57.223Z,15.00
2019-01-29T11:34:29.016Z,15.03
2019-01-29T11:36:59.821Z,15.93
2019-01-29T11:39:31.030Z,15.00
2019-01-29T11:42:02.050Z,14.80
2019-01-29T11:44:32.617Z,14.57
2019-01-29T11:47:03.037Z,16.67
2019-01-29T11:49:33.950Z,15.43
2019-01-29T11:52:04.936Z,15.80
2019-01-29T11:54:35.643Z,15.87
2019-01-29T11:57:06.297Z,16.13
2019-01-29T11:59:36.971Z,16.57
2019-01-29T12:02:09.307Z,16.63
2019-01-29T12:04:39.814Z,16.53
2019-01-29T12:07:10.778Z,15.77
2019-01-29T12:09:41.578Z,15.40
2019-01-29T12:12:14.783Z,16.90
2019-01-29T12:14:45.889Z,16.50
2019-01-29T12:17:16.309Z,17.07
2019-01-29T12:19:47.146Z,16.03
2019-01-29T12:22:17.850Z,16.67
2019-01-29T12:24:49.683Z,16.47
2019-01-29T12:27:20.227Z,16.73
2019-01-29T12:29:50.835Z,16.43
2019-01-29T12:32:22.479Z,15.10
2019-01-29T12:34:52.883Z,16.60
2019-01-29T12:37:23.661Z,15.53
2019-01-29T12:39:54.447Z,14.80
2019-01-29T12:42:24.945Z,14.77
2019-01-29T12:44:55.696Z,15.07
2019-01-29T12:47:26.241Z,16.87
2019-01-29T12:49:57.399Z,15.87
2019-01-29T12:52:55.962Z,15.90
2019-01-29T12:55:26.854Z,16.47
2019-01-29T12:57:57.799Z,15.23
2019-01-29T13:03:57.799Z,16.57
2019-01-29T13:06:28.704Z,16.83
2019-01-29T13:08:59.995Z,16.57
2019-01-29T13:11:31.554Z,17.00
2019-01-29T13:14:02.918Z,17.53
2019-01-29T13:16:33.751Z,21.53
2019-01-29T13:19:05.094Z,17.57
2019-01-29T13:21:36.464Z,17.60
2019-01-29T13:24:08.129Z,18.00
2019-01-29T13:26:38.810Z,20.50
2019-01-29T13:29:09.576Z,17.20
2019-01-29T13:31:40.707Z,17.63
2019-01-29T13:34:11.967Z,17.90
2019-01-29T13:36:43.543Z,21.87
2019-01-29T13:39:14.381Z,18.90
2019-01-29T13:41:45.086Z,19.00
2019-01-29T13:44:15.640Z,19.10
2019-01-29T13:46:46.529Z,17.40
2019-01-29T13:49:17.362Z,18.97
2019-01-29T13:51:48.094Z,18.47
2019-01-29T13:54:19.068Z,19.73
2019-01-29T13:56:49.839Z,19.60
2019-01-29T13:59:21.686Z,18.50
2019-01-29T14:01:52.775Z,19.20
2019-01-29T14:04:23.742Z,20.27
2019-01-29T14:06:54.283Z,17.60
2019-01-29T14:09:24.991Z,18.50
2019-01-29T14:11:57.542Z,19.03
2019-01-29T14:14:29.740Z,18.93
2019-01-29T14:17:00.360Z,17.17
2019-01-29T14:19:31.578Z,15.70
2019-01-29T14:22:03.851Z,19.27
2019-01-29T14:24:35.013Z,18.20
2019-01-29T14:27:06.621Z,17.80
2019-01-29T14:29:38.301Z,17.70
2019-01-29T14:32:09.773Z,17.83
2019-01-29T14:34:40.372Z,17.80
2019-01-29T14:37:10.876Z,18.33
2019-01-29T14:40:17.717Z,18.70
2019-01-29T14:42:50.086Z,18.50
2019-01-29T14:45:24.223Z,17.00
2019-01-29T14:47:56.139Z,18.30
2019-01-29T14:50:29.265Z,17.50
2019-01-29T14:53:00.047Z,16.87
2019-01-29T14:55:30.734Z,19.03
2019-01-29T14:58:01.372Z,18.50
2019-01-29T15:00:33.091Z,17.90
2019-01-29T15:03:03.813Z,15.97
2019-01-29T15:05:34.924Z,16.07
2019-01-29T15:08:06.256Z,15.97
2019-01-29T15:10:37.490Z,16.63
2019-01-29T15:13:09.593Z,15.40
2019-01-29T15:15:45.108Z,17.00
2019-01-29T15:18:22.547Z,19.20
2019-01-29T15:20:53.569Z,16.47
2019-01-29T15:23:24.099Z,18.47
2019-01-29T15:25:55.875Z,17.40
2019-01-29T15:28:26.377Z,18.53
2019-01-29T15:30:56.870Z,19.40
2019-01-29T15:33:27.588Z,19.70
2019-01-29T15:35:58.406Z,19.33
2019-01-29T15:38:29.396Z,20.57
2019-01-29T15:40:59.982Z,19.97
2019-01-29T15:43:30.807Z,20.63
2019-01-29T15:46:01.758Z,19.57
2019-01-29T15:48:33.204Z,28.23
2019-01-29T15:51:04.497Z,31.17
2019-01-29T15:53:35.572Z,22.90
2019-01-29T15:56:06.815Z,26.17
2019-01-29T15:58:38.121Z,23.23
2019-01-29T16:01:08.669Z,22.23
2019-01-29T16:03:39.333Z,22.93
2019-01-29T16:06:11.213Z,23.23
2019-01-29T16:08:41.819Z,21.73
2019-01-29T16:11:12.412Z,22.37
2019-01-29T16:13:43.447Z,30.33
2019-01-29T16:16:14.537Z,24.57
2019-01-29T16:18:46.234Z,22.57
2019-01-29T16:21:17.263Z,22.57
2019-01-29T16:23:48.156Z,22.20
2019-01-29T16:26:20.262Z,22.63
2019-01-29T16:28:51.269Z,23.30
2019-01-29T16:31:21.861Z,24.80
2019-01-29T16:33:54.209Z,22.80
2019-01-29T16:36:25.128Z,21.93
2019-01-29T16:38:56.028Z,24.83
2019-01-29T16:41:27.076Z,26.13
2019-01-29T16:43:58.157Z,26.97
2019-01-29T16:46:29.177Z,26.07
2019-01-29T16:48:59.772Z,24.93
2019-01-29T16:51:30.711Z,26.50
2019-01-29T16:54:01.413Z,27.60
2019-01-29T16:56:32.145Z,31.33
2019-01-29T16:59:03.108Z,30.90
2019-01-29T17:01:34.464Z,27.97
2019-01-29T17:04:06.944Z,28.03
2019-01-29T17:06:37.774Z,28.37
2019-01-29T17:09:13.384Z,30.13
2019-01-29T17:11:44.695Z,32.93
2019-01-29T17:14:16.272Z,33.80
2019-01-29T17:16:48.494Z,35.93
2019-01-29T17:19:19.241Z,28.00
2019-01-29T17:21:50.514Z,24.50
2019-01-29T17:24:22.028Z,26.63
2019-01-29T17:26:52.934Z,27.13
2019-01-29T17:29:23.956Z,28.30
2019-01-29T17:31:55.435Z,35.03
2019-01-29T17:34:28.505Z,28.17
2019-01-29T17:36:59.605Z,33.07
2019-01-29T17:39:31.292Z,37.30
2019-01-29T17:42:02.666Z,30.77
2019-01-29T17:44:33.945Z,37.00
2019-01-29T17:47:04.535Z,31.33
2019-01-29T17:49:35.819Z,31.33
2019-01-29T17:52:07.286Z,44.40
2019-01-29T17:54:37.938Z,32.70
2019-01-29T17:57:09.494Z,33.47
2019-01-29T17:59:41.242Z,37.13
2019-01-29T18:02:12.036Z,39.40
2019-01-29T18:04:43.279Z,35.50
2019-01-29T18:07:14.621Z,38.67
2019-01-29T18:09:45.984Z,41.90
2019-01-29T18:12:17.065Z,38.13
2019-01-29T18:14:50.253Z,34.60
2019-01-29T18:17:21.348Z,27.53
2019-01-29T18:19:53.369Z,25.30
2019-01-29T18:22:25.012Z,23.90
2019-01-29T18:24:56.479Z,25.67
2019-01-29T18:27:28.138Z,25.50
2019-01-29T18:30:00.187Z,24.53
2019-01-29T18:32:31.952Z,23.37
2019-01-29T18:35:03.745Z,28.03
2019-01-29T18:37:39.656Z,34.17
2019-01-29T18:40:13.568Z,32.47
2019-01-29T18:42:47.423Z,32.40
2019-01-29T18:45:21.636Z,26.33
2019-01-29T18:47:53.201Z,19.33
2019-01-29T18:50:24.723Z,19.57
2019-01-29T18:52:55.504Z,19.80
2019-01-29T18:55:28.244Z,21.07
2019-01-29T18:58:15.212Z,20.80
2019-01-29T19:00:54.405Z,26.60
2019-01-29T19:03:19.748Z,23.50
2019-01-29T19:05:50.890Z,20.97
2019-01-29T19:08:22.188Z,30.33
2019-01-29T19:10:53.719Z,33.80
2019-01-29T19:13:25.507Z,29.33
2019-01-29T19:15:56.879Z,29.13
2019-01-29T19:18:28.480Z,34.43
2019-01-29T19:21:00.287Z,33.43
2019-01-29T19:23:33.149Z,38.97
2019-01-29T19:26:05.319Z,23.87
2019-01-29T19:28:36.918Z,39.53
2019-01-29T19:31:08.625Z,29.80
2019-01-29T19:33:39.754Z,34.23
2019-01-29T19:36:11.345Z,30.23
2019-01-29T19:38:43.760Z,28.53
2019-01-29T19:41:16.203Z,32.27
2019-01-29T19:43:47.234Z,36.53
2019-01-29T19:46:18.979Z,33.17
2019-01-29T19:48:51.872Z,30.93
2019-01-29T19:51:22.941Z,36.90
2019-01-29T19:53:54.449Z,37.87
2019-01-29T19:56:25.720Z,44.87
2019-01-29T19:58:57.477Z,41.40
2019-01-29T20:01:28.957Z,40.37
2019-01-29T20:04:00.580Z,41.90
2019-01-29T20:06:33.459Z,41.97
2019-01-29T20:09:13.043Z,34.17
2019-01-29T20:11:45.160Z,41.97
2019-01-29T20:14:16.827Z,37.97
2019-01-29T20:16:50.416Z,42.50
2019-01-29T20:19:22.362Z,42.23
2019-01-29T20:21:54.292Z,46.60
2019-01-29T20:24:25.271Z,48.57
2019-01-29T20:26:57.886Z,48.20
2019-01-29T20:29:30.341Z,54.17
2019-01-29T20:32:03.549Z,56.03
2019-01-29T20:34:35.167Z,59.23
2019-01-29T20:37:07.811Z,74.90
2019-01-29T20:39:39.798Z,57.90
2019-01-29T20:42:12.398Z,60.87
2019-01-29T20:44:44.617Z,52.30
2019-01-29T20:47:16.556Z,72.03
2019-01-29T20:49:48.851Z,63.33
2019-01-29T20:52:19.859Z,81.20
2019-01-29T20:54:52.629Z,87.13
2019-01-29T20:57:23.968Z,86.87
2019-01-29T20:59:55.647Z,97.20
2019-01-29T21:02:26.556Z,95.87
2019-01-29T21:04:58.308Z,65.70
2019-01-29T21:07:29.680Z,77.63
2019-01-29T21:10:07.195Z,86.87
2019-01-29T21:12:38.549Z,96.27
2019-01-29T21:15:12.142Z,79.77
2019-01-29T21:17:44.020Z,88.30
2019-01-29T21:20:16.975Z,107.40
2019-01-29T21:22:48.665Z,90.40
2019-01-29T21:25:19.940Z,104.07
2019-01-29T21:27:52.214Z,89.53
2019-01-29T21:30:46.080Z,100.87
2019-01-29T21:33:17.097Z,104.57
2019-01-29T21:35:49.458Z,102.67
2019-01-29T21:38:20.298Z,111.93
2019-01-29T21:40:51.451Z,88.60
2019-01-29T21:43:22.344Z,94.30
2019-01-29T21:45:53.306Z,109.47
2019-01-29T21:48:24.406Z,102.63
2019-01-29T21:50:58.936Z,97.97
2019-01-29T21:53:31.997Z,98.93
2019-01-29T21:56:03.258Z,99.97
2019-01-29T21:58:34.425Z,108.60
2019-01-29T22:01:05.523Z,106.13
2019-01-29T22:03:36.818Z,111.53
2019-01-29T22:06:07.388Z,102.47
2019-01-29T22:08:38.338Z,101.07
2019-01-29T22:11:09.002Z,98.37
2019-01-29T22:13:39.568Z,106.40
2019-01-29T22:16:11.303Z,110.37
2019-01-29T22:18:42.703Z,108.07
2019-01-29T22:21:13.288Z,119.23
2019-01-29T22:23:44.294Z,137.40
2019-01-29T22:26:15.399Z,118.33
2019-01-29T22:28:46.206Z,126.77
2019-01-29T22:31:16.914Z,107.67
2019-01-29T22:33:48.255Z,121.63
2019-01-29T22:36:18.928Z,108.87
2019-01-29T22:38:49.644Z,116.07
2019-01-29T22:41:20.823Z,108.97
2019-01-29T22:43:52.123Z,121.77
2019-01-29T22:46:22.923Z,141.73
2019-01-29T22:48:54.226Z,134.43
2019-01-29T22:51:25.036Z,134.77
2019-01-29T22:53:55.651Z,123.17
2019-01-29T22:56:26.170Z,131.03
2019-01-29T22:58:57.125Z,119.17
2019-01-29T23:01:37.712Z,137.53
2019-01-29T23:04:26.021Z,134.50
2019-01-29T23:07:03.189Z,134.57
2019-01-29T23:09:34.279Z,120.70
2019-01-29T23:12:05.879Z,102.50
2019-01-29T23:14:36.850Z,97.77
2019-01-29T23:17:07.578Z,108.63
2019-01-29T23:19:38.382Z,89.07
2019-01-29T23:22:09.518Z,100.23
2019-01-29T23:24:40.867Z,98.67
2019-01-29T23:27:12.233Z,95.30
2019-01-29T23:29:43.844Z,96.53
2019-01-29T23:32:14.940Z,88.80
2019-01-29T23:34:45.945Z,111.13
2019-01-29T23:37:16.829Z,97.90
2019-01-29T23:39:47.985Z,93.43
2019-01-29T23:42:19.126Z,104.23
2019-01-29T23:44:49.744Z,114.20
2019-01-29T23:47:20.956Z,122.33
2019-01-29T23:49:51.177Z,122.50
2019-01-29T23:52:21.789Z,131.70
2019-01-29T23:54:55.965Z,106.13
2019-01-29T23:57:26.528Z,130.10
2019-01-29T23:59:56.934Z,134.90
